Time;durP1;ratioP1;P1;durP2;ratioP2;P2;SDS_P1;SDS_P2;PMS_P1;PMS_P2;Temp;Humidity;BMP_temperature;BMP_pressure;BME280_temperature;BME280_humidity;BME280_pressure;Samples;Min_cycle;Max_cycle;Signal;HPM_P1;HPM_P2
2021/04/14 00:00:37;;;;;;;1.63;1.40;;;18.10;42.00;;;;;;4973519;28;20158;-79
2021/04/14 00:03:06;;;;;;;2.83;1.52;;;18.10;41.90;;;;;;4972506;28;20181;-79
2021/04/14 00:05:36;;;;;;;2.70;1.40;;;18.10;41.80;;;;;;4971578;29;20228;-79
2021/04/14 00:08:04;;;;;;;3.28;1.30;;;18.10;41.80;;;;;;4971236;29;20378;-80
2021/04/14 00:10:33;;;;;;;2.17;1.33;;;18.10;41.90;;;;;;4972883;28;20200;-80
2021/04/14 00:13:03;;;;;;;2.95;1.40;;;18.10;41.90;;;;;;4971617;29;20161;-81
2021/04/14 00:15:52;;;;;;;2.42;1.25;;;18.10;41.90;;;;;;4972702;28;20545;-80
2021/04/14 00:18:20;;;;;;;2.78;1.77;;;18.10;42.00;;;;;;4971974;29;20197;-80
2021/04/14 00:20:47;;;;;;;2.42;1.42;;;18.00;42.00;;;;;;4972240;28;20221;-78
2021/04/14 00:23:18;;;;;;;2.10;1.38;;;18.00;42.10;;;;;;4972048;29;20158;-78
2021/04/14 00:25:46;;;;;;;2.58;1.20;;;18.00;42.10;;;;;;4970938;29;20165;-79
2021/04/14 00:28:22;;;;;;;1.88;1.48;;;18.00;42.10;;;;;;4972246;28;20189;-78
2021/04/14 00:30:49;;;;;;;2.53;1.42;;;18.00;42.10;;;;;;4972510;28;20157;-80
2021/04/14 00:33:24;;;;;;;2.67;1.20;;;18.00;42.10;;;;;;4972605;28;20597;-80
2021/04/14 00:35:50;;;;;;;4.32;1.52;;;18.00;42.10;;;;;;4970666;29;20648;-81
2021/04/14 00:38:18;;;;;;;2.05;1.40;;;18.00;42.10;;;;;;4972226;28;20154;-80
2021/04/14 00:40:46;;;;;;;3.03;1.45;;;18.00;42.20;;;;;;4971775;29;20153;-80
2021/04/14 00:43:18;;;;;;;1.88;1.27;;;18.00;42.10;;;;;;4970811;29;20245;-79
2021/04/14 00:45:46;;;;;;;1.40;1.27;;;18.00;42.10;;;;;;4970354;29;20164;-80
2021/04/14 00:48:12;;;;;;;4.13;1.60;;;17.90;42.30;;;;;;4971304;28;20154;-79
2021/04/14 00:50:40;;;;;;;2.53;1.60;;;18.00;42.40;;;;;;4971967;28;20162;-81
2021/04/14 00:53:08;;;;;;;3.58;1.60;;;17.90;42.40;;;;;;4970776;29;20629;-79
2021/04/14 00:55:38;;;;;;;2.38;1.40;;;17.90;42.20;;;;;;4971708;28;20165;-78
2021/04/14 00:58:06;;;;;;;1.25;1.15;;;18.00;42.20;;;;;;4970955;28;20165;-81
2021/04/14 01:00:37;;;;;;;2.10;1.63;;;18.00;42.30;;;;;;4970921;29;20192;-79
2021/04/14 01:03:05;;;;;;;2.17;1.42;;;17.90;42.30;;;;;;4970552;29;20158;-79
2021/04/14 01:05:33;;;;;;;1.70;1.33;;;17.90;42.40;;;;;;4970839;29;20164;-80
2021/04/14 01:08:01;;;;;;;1.83;1.58;;;17.90;42.40;;;;;;4972438;28;20245;-80
2021/04/14 01:10:36;;;;;;;3.55;1.75;;;17.90;42.40;;;;;;4970934;29;20168;-78
2021/04/14 01:13:03;;;;;;;1.42;1.27;;;17.90;42.40;;;;;;4970841;29;20184;-79
2021/04/14 01:15:52;;;;;;;1.90;1.20;;;17.90;42.50;;;;;;4971118;29;20164;-80
2021/04/14 01:18:21;;;;;;;1.45;1.30;;;17.90;42.50;;;;;;4967124;29;20189;-79
2021/04/14 01:20:47;;;;;;;2.35;1.63;;;17.90;42.40;;;;;;4969113;28;20312;-80
2021/04/14 01:23:14;;;;;;;3.55;1.33;;;17.90;42.40;;;;;;4967545;29;20628;-80
2021/04/14 01:25:41;;;;;;;3.35;1.40;;;17.90;42.50;;;;;;4968242;28;20201;-80
2021/04/14 01:28:30;;;;;;;2.75;1.35;;;17.90;42.50;;;;;;4968629;29;20166;-82
2021/04/14 01:30:57;;;;;;;2.45;1.40;;;17.90;42.50;;;;;;4968954;29;20173;-79
2021/04/14 01:33:26;;;;;;;1.70;1.35;;;17.90;42.50;;;;;;4971353;28;20154;-79
2021/04/14 01:35:54;;;;;;;3.65;1.70;;;17.90;42.50;;;;;;4971392;29;20168;-77
2021/04/14 01:38:20;;;;;;;2.10;1.70;;;17.90;42.70;;;;;;4972662;28;20220;-81
2021/04/14 01:40:46;;;;;;;2.65;1.20;;;17.90;42.60;;;;;;4972593;28;20166;-79
2021/04/14 01:43:14;;;;;;;2.88;1.73;;;17.90;42.50;;;;;;4971768;29;20169;-79
2021/04/14 01:45:42;;;;;;;1.73;1.20;;;17.90;42.50;;;;;;4971851;29;20176;-79
2021/04/14 01:48:11;;;;;;;2.78;1.20;;;17.90;42.60;;;;;;4972687;28;20161;-80
2021/04/14 01:50:38;;;;;;;1.80;1.30;;;17.90;42.50;;;;;;4971676;29;20212;-81
2021/04/14 01:53:09;;;;;;;3.40;1.30;;;17.90;42.60;;;;;;4972147;29;20154;-80
2021/04/14 01:55:35;;;;;;;4.28;1.40;;;17.90;42.60;;;;;;4972483;28;20149;-80
2021/04/14 01:58:02;;;;;;;2.72;1.55;;;17.90;42.60;;;;;;4955482;29;20189;-80
2021/04/14 02:00:56;;;;;;;1.55;1.20;;;17.80;42.60;;;;;;4972052;28;20162;-80
2021/04/14 02:03:24;;;;;;;3.17;1.27;;;17.80;42.60;;;;;;4970506;29;20278;-78
2021/04/14 02:05:51;;;;;;;2.45;1.52;;;17.80;42.70;;;;;;4971438;29;20158;-81
2021/04/14 02:08:18;;;;;;;2.63;1.45;;;17.80;42.70;;;;;;4971857;28;20162;-80
2021/04/14 02:10:48;;;;;;;3.42;1.45;;;17.80;42.80;;;;;;4972591;28;20169;-79
2021/04/14 02:13:23;;;;;;;3.05;1.25;;;17.80;42.70;;;;;;4972425;28;20166;-80
2021/04/14 02:15:52;;;;;;;2.88;1.50;;;17.80;42.70;;;;;;4971731;29;20258;-79
2021/04/14 02:18:27;;;;;;;2.15;1.20;;;17.80;42.70;;;;;;4971564;29;20166;-80
2021/04/14 02:20:54;;;;;;;4.15;1.30;;;17.80;42.80;;;;;;4971837;28;20220;-79
2021/04/14 02:23:29;;;;;;;1.73;1.30;;;17.80;42.70;;;;;;4971279;29;20154;-79
2021/04/14 02:26:07;;;;;;;3.47;1.50;;;17.80;42.70;;;;;;4972019;28;20170;-79
2021/04/14 02:28:42;;;;;;;3.58;1.50;;;17.80;42.70;;;;;;4971873;28;20149;-79
2021/04/14 02:31:09;;;;;;;2.42;1.40;;;17.80;42.60;;;;;;4971157;28;20624;-81
2021/04/14 02:33:44;;;;;;;1.67;1.40;;;17.80;42.60;;;;;;4954077;28;20165;-78
2021/04/14 02:36:16;;;;;;;2.22;1.23;;;17.80;42.70;;;;;;4971844;28;20201;-80
2021/04/14 02:38:47;;;;;;;2.85;1.30;;;17.80;42.70;;;;;;4970293;29;20189;-78
2021/04/14 02:41:13;;;;;;;2.40;1.30;;;17.80;42.80;;;;;;4971379;28;20189;-78
2021/04/14 02:43:42;;;;;;;1.58;1.20;;;17.80;42.80;;;;;;4970714;28;20602;-77
2021/04/14 02:46:08;;;;;;;2.15;1.48;;;17.80;42.80;;;;;;4973135;28;20146;-81
2021/04/14 02:48:36;;;;;;;3.05;1.33;;;17.80;42.80;;;;;;4971615;29;20173;-80
2021/04/14 02:51:11;;;;;;;1.67;1.30;;;17.80;42.70;;;;;;4971633;29;20153;-80
2021/04/14 02:53:37;;;;;;;2.45;1.30;;;17.80;42.60;;;;;;4971486;29;20160;-81
2021/04/14 02:56:04;;;;;;;1.85;1.40;;;17.80;42.70;;;;;;4973336;28;20169;-80
2021/04/14 02:58:31;;;;;;;1.70;1.20;;;17.80;43.00;;;;;;4954284;29;20240;-79
2021/04/14 03:00:58;;;;;;;1.48;1.35;;;17.80;42.60;;;;;;4972617;28;20221;-80
2021/04/14 03:03:32;;;;;;;1.33;1.23;;;17.80;42.70;;;;;;4971744;29;20577;-82
2021/04/14 03:05:58;;;;;;;2.08;1.30;;;17.80;42.90;;;;;;4972453;28;20207;-80
2021/04/14 03:08:24;;;;;;;3.15;1.60;;;17.80;42.90;;;;;;4971229;29;20614;-80
2021/04/14 03:10:50;;;;;;;2.85;1.35;;;17.80;42.90;;;;;;4972831;28;20158;-79
2021/04/14 03:13:17;;;;;;;2.40;1.23;;;17.80;43.00;;;;;;4971261;29;20166;-81
2021/04/14 03:15:43;;;;;;;2.78;1.42;;;17.80;42.80;;;;;;4971170;29;20150;-79
2021/04/14 03:18:14;;;;;;;1.40;1.30;;;17.70;42.80;;;;;;4973318;28;20624;-81
2021/04/14 03:20:40;;;;;;;2.47;1.35;;;17.80;43.00;;;;;;4972766;28;20285;-81
2021/04/14 03:23:09;;;;;;;1.20;1.10;;;17.80;42.80;;;;;;4971236;29;20153;-80
2021/04/14 03:25:39;;;;;;;2.00;1.40;;;17.70;42.90;;;;;;4972535;28;20162;-81
2021/04/14 03:28:07;;;;;;;3.15;1.30;;;17.70;43.00;;;;;;4972446;28;20165;-80
2021/04/14 03:30:34;;;;;;;1.88;1.25;;;17.80;42.90;;;;;;4971959;28;20236;-81
2021/04/14 03:33:02;;;;;;;2.58;1.45;;;17.80;43.00;;;;;;4971424;29;20166;-79
2021/04/14 03:35:29;;;;;;;1.98;1.10;;;17.70;42.90;;;;;;4970324;29;20162;-81
2021/04/14 03:38:04;;;;;;;1.33;1.23;;;17.80;42.90;;;;;;4970767;29;20201;-81
2021/04/14 03:40:32;;;;;;;1.80;1.30;;;17.80;43.00;;;;;;4972718;28;20165;-80
2021/04/14 03:43:00;;;;;;;1.70;1.15;;;17.70;43.10;;;;;;4971271;29;20154;-81
2021/04/14 03:45:36;;;;;;;1.65;1.20;;;17.70;43.00;;;;;;4970021;29;20671;-81
2021/04/14 03:48:02;;;;;;;1.40;1.20;;;17.70;43.00;;;;;;4971723;28;20217;-81
2021/04/14 03:50:29;;;;;;;1.88;1.27;;;17.80;43.00;;;;;;4971917;28;20170;-79
2021/04/14 03:53:06;;;;;;;2.85;1.42;;;17.80;43.10;;;;;;4969713;29;20238;-81
2021/04/14 03:55:32;;;;;;;1.33;1.10;;;17.80;42.90;;;;;;4970831;28;20154;-79
2021/04/14 03:57:59;;;;;;;2.05;1.33;;;17.80;42.80;;;;;;4972111;28;20164;-77
2021/04/14 04:00:33;;;;;;;1.35;1.20;;;17.80;42.70;;;;;;4971583;28;20193;-80
2021/04/14 04:03:00;;;;;;;1.42;1.30;;;17.80;42.70;;;;;;4971741;28;20169;-81
2021/04/14 04:05:26;;;;;;;1.77;1.20;;;17.80;42.60;;;;;;4971482;29;20165;-78
2021/04/14 04:07:54;;;;;;;2.65;1.42;;;17.80;42.70;;;;;;4972697;28;20153;-80
2021/04/14 04:10:20;;;;;;;1.10;1.00;;;17.80;42.60;;;;;;4973557;28;20172;-79
2021/04/14 04:12:48;;;;;;;3.15;1.20;;;17.90;42.30;;;;;;4972594;29;20540;-77
2021/04/14 04:15:15;;;;;;;1.23;1.10;;;17.90;42.30;;;;;;4972908;29;20168;-81
2021/04/14 04:17:47;;;;;;;1.27;1.00;;;18.00;41.90;;;;;;4974474;28;20213;-79
2021/04/14 04:20:13;;;;;;;1.88;1.10;;;18.10;41.70;;;;;;4975523;28;20316;-79
2021/04/14 04:22:47;;;;;;;1.27;1.05;;;18.10;41.70;;;;;;4976600;28;20185;-78
2021/04/14 04:25:15;;;;;;;1.27;1.17;;;18.00;42.10;;;;;;4976359;28;20156;-79
2021/04/14 04:27:47;;;;;;;2.30;1.20;;;18.00;41.80;;;;;;4976346;28;20153;-79
2021/04/14 04:30:17;;;;;;;2.03;1.10;;;18.00;42.60;;;;;;4977113;28;20153;-79
2021/04/14 04:32:45;;;;;;;0.90;0.80;;;18.00;41.80;;;;;;4977547;28;20158;-78
2021/04/14 04:35:21;;;;;;;1.58;1.10;;;18.00;42.00;;;;;;4976666;29;20162;-79
2021/04/14 04:37:53;;;;;;;3.08;1.20;;;18.00;41.60;;;;;;4978028;28;20186;-79
2021/04/14 04:40:21;;;;;;;1.40;1.30;;;18.10;41.70;;;;;;4978252;28;20197;-78
2021/04/14 04:42:48;;;;;;;1.20;1.10;;;18.10;41.50;;;;;;4976973;29;20616;-79
2021/04/14 04:45:14;;;;;;;1.73;1.20;;;18.10;41.60;;;;;;4978096;28;20173;-78
2021/04/14 04:47:45;;;;;;;1.45;1.00;;;18.10;41.70;;;;;;4978196;28;20165;-79
2021/04/14 04:50:26;;;;;;;1.45;1.13;;;18.10;41.50;;;;;;4977371;29;20161;-79
2021/04/14 04:52:58;;;;;;;1.30;1.20;;;18.10;41.40;;;;;;4977030;29;20184;-79
2021/04/14 04:55:29;;;;;;;1.17;1.00;;;18.10;41.40;;;;;;4977567;28;20176;-78
2021/04/14 04:57:57;;;;;;;1.85;1.10;;;18.10;41.60;;;;;;4970803;28;20181;-80
2021/04/14 05:00:27;;;;;;;1.25;1.15;;;18.20;41.20;;;;;;4971713;28;20192;-81
2021/04/14 05:02:55;;;;;;;1.20;1.10;;;18.20;41.20;;;;;;4973054;28;20146;-81
2021/04/14 05:05:25;;;;;;;1.52;1.00;;;18.20;41.30;;;;;;4957380;29;20168;-80
2021/04/14 05:07:51;;;;;;;2.60;0.90;;;18.20;41.30;;;;;;4976040;28;20177;-81
2021/04/14 05:10:23;;;;;;;4.95;1.27;;;18.10;41.40;;;;;;4980042;28;20173;-82
2021/04/14 05:12:53;;;;;;;1.17;0.90;;;18.10;41.30;;;;;;4980123;28;20177;-79
2021/04/14 05:15:23;;;;;;;1.33;0.98;;;18.10;41.40;;;;;;4980279;28;20161;-82
2021/04/14 05:17:55;;;;;;;1.33;1.00;;;18.10;41.40;;;;;;4977793;28;20157;-83
2021/04/14 05:20:20;;;;;;;1.25;0.98;;;18.10;41.30;;;;;;4976043;29;20235;-82
2021/04/14 05:22:47;;;;;;;2.00;0.85;;;18.10;41.40;;;;;;4974610;29;20225;-80
2021/04/14 05:25:16;;;;;;;0.82;0.80;;;18.00;41.60;;;;;;4974673;29;20610;-80
2021/04/14 05:27:53;;;;;;;1.38;1.02;;;18.00;41.40;;;;;;4975049;28;20236;-82
2021/04/14 05:30:22;;;;;;;4.85;1.20;;;18.00;42.00;;;;;;4971178;28;20158;-81
2021/04/14 05:32:49;;;;;;;4.70;1.00;;;18.10;41.20;;;;;;4969563;29;20153;-81
2021/04/14 05:35:25;;;;;;;1.25;0.90;;;18.10;41.30;;;;;;4969179;29;20165;-82
2021/04/14 05:37:51;;;;;;;1.20;1.08;;;18.00;41.30;;;;;;4969194;29;20169;-82
2021/04/14 05:40:18;;;;;;;2.45;1.00;;;18.00;41.50;;;;;;4970025;28;20200;-83
2021/04/14 05:42:46;;;;;;;0.82;0.80;;;18.10;41.20;;;;;;4970013;28;20162;-81
2021/04/14 05:45:15;;;;;;;0.82;0.80;;;18.10;41.00;;;;;;4968728;29;20165;-82
2021/04/14 05:47:44;;;;;;;2.08;1.00;;;18.20;41.00;;;;;;4971500;28;20158;-82
2021/04/14 05:50:12;;;;;;;1.25;0.90;;;18.20;41.00;;;;;;4969684;29;20229;-80
2021/04/14 05:52:46;;;;;;;1.02;0.90;;;18.10;41.00;;;;;;4971832;28;20158;-81
2021/04/14 05:55:11;;;;;;;1.40;1.05;;;18.20;40.90;;;;;;4970191;28;20154;-81
2021/04/14 05:57:37;;;;;;;1.25;1.05;;;18.10;41.10;;;;;;4970089;29;20193;-81
2021/04/14 06:00:08;;;;;;;0.95;0.80;;;18.10;41.30;;;;;;4953430;29;20739;-82
2021/04/14 06:02:34;;;;;;;0.80;0.80;;;18.20;41.70;;;;;;4953885;29;20649;-79
2021/04/14 06:05:03;;;;;;;1.20;0.93;;;18.20;41.40;;;;;;4978871;29;20189;-79
2021/04/14 06:07:35;;;;;;;1.77;0.93;;;18.30;41.40;;;;;;4979393;28;20169;-77
2021/04/14 06:10:13;;;;;;;1.17;1.00;;;18.30;41.10;;;;;;4981636;28;20164;-78
2021/04/14 06:12:40;;;;;;;1.10;1.00;;;18.30;40.90;;;;;;4962020;29;20213;-82
2021/04/14 06:15:27;;;;;;;1.05;0.70;;;18.30;40.70;;;;;;4963527;29;20185;-82
2021/04/14 06:17:53;;;;;;;0.90;0.77;;;18.30;41.40;;;;;;4946380;28;20162;-79
2021/04/14 06:20:20;;;;;;;2.03;1.05;;;18.30;40.60;;;;;;4966135;29;20362;-79
2021/04/14 06:22:58;;;;;;;1.70;1.10;;;18.30;40.50;;;;;;4953083;29;20195;-78
2021/04/14 06:25:24;;;;;;;0.90;0.90;;;18.30;40.50;;;;;;4964139;29;20625;-79
2021/04/14 06:28:00;;;;;;;0.88;0.73;;;18.20;40.50;;;;;;4961938;29;20174;-81
2021/04/14 06:30:27;;;;;;;1.20;0.80;;;18.30;40.30;;;;;;4961906;29;20164;-82
2021/04/14 06:32:56;;;;;;;2.53;1.05;;;18.30;40.40;;;;;;4945180;29;20221;-81
2021/04/14 06:35:23;;;;;;;2.28;0.82;;;18.40;40.00;;;;;;4945715;29;20176;-81
2021/04/14 06:37:51;;;;;;;1.33;0.98;;;18.40;39.90;;;;;;4950433;29;20169;-81
2021/04/14 06:43:28;;;;;;;;;;;;;;;;;;;;;
2021/04/14 06:45:59;;;;;;;3.03;0.90;;;18.30;39.80;;;;;;4971417;29;20181;-85
2021/04/14 06:48:44;;;;;;;;;;;;;;;;;;;;;
2021/04/14 06:51:36;;;;;;;2.92;1.00;;;18.30;39.80;;;;;;4963122;29;20236;-84
2021/04/14 06:54:06;;;;;;;5.43;1.00;;;18.30;40.00;;;;;;4951513;29;20192;-81
2021/04/14 06:57:00;;;;;;;9.23;1.20;;;18.30;39.90;;;;;;4966572;29;20177;-82
2021/04/14 06:59:30;;;;;;;6.00;1.25;;;18.30;40.10;;;;;;4953523;29;20228;-83
2021/04/14 07:02:07;;;;;;;3.42;0.90;;;18.40;39.70;;;;;;4948943;29;20169;-82
2021/04/14 07:04:44;;;;;;;5.22;1.52;;;18.40;39.20;;;;;;4950363;29;20196;-80
2021/04/14 07:07:19;;;;;;;3.15;1.42;;;18.50;39.60;;;;;;4954273;29;20653;-82
2021/04/14 07:09:52;;;;;;;3.95;1.13;;;18.40;39.90;;;;;;4972054;29;20161;-79
2021/04/14 07:12:25;;;;;;;6.22;1.17;;;18.40;40.00;;;;;;4954867;29;20158;-80
2021/04/14 07:14:53;;;;;;;6.60;1.40;;;18.30;39.90;;;;;;4951245;29;20162;-81
2021/04/14 07:17:37;;;;;;;3.80;1.08;;;18.40;39.70;;;;;;4967902;29;20172;-79
2021/04/14 07:20:23;;;;;;;4.15;0.90;;;18.50;39.10;;;;;;4972668;28;20271;-81
2021/04/14 07:23:18;;;;;;;3.13;1.20;;;18.50;39.90;;;;;;4959731;29;20184;-78
2021/04/14 07:26:05;;;;;;;2.05;1.38;;;18.40;39.80;;;;;;4975678;29;20180;-78
2021/04/14 07:28:51;;;;;;;2.08;1.10;;;18.30;40.00;;;;;;4960392;29;20173;-79
2021/04/14 07:35:11;;;;;;;2.53;0.68;;;18.30;39.50;;;;;;4975246;28;20165;-78
2021/04/14 07:38:09;;;;;;;6.25;1.00;;;18.40;38.90;;;;;;4935620;29;20190;-79
2021/04/14 07:41:06;;;;;;;2.55;1.00;;;18.40;39.20;;;;;;4935757;29;20202;-78
2021/04/14 07:43:58;;;;;;;3.13;1.20;;;18.40;39.50;;;;;;4933232;29;20170;-79
2021/04/14 07:46:24;;;;;;;1.77;0.95;;;18.30;39.70;;;;;;4931053;29;20186;-78
2021/04/14 07:48:55;;;;;;;4.32;1.10;;;18.30;39.30;;;;;;4913127;29;20323;-81
2021/04/14 07:51:29;;;;;;;5.03;0.95;;;18.30;39.50;;;;;;4915386;29;20169;-79
2021/04/14 07:54:10;;;;;;;1.63;0.70;;;18.30;39.50;;;;;;4918279;29;20180;-80
2021/04/14 07:56:59;;;;;;;3.42;1.15;;;18.30;39.40;;;;;;4931555;29;20197;-79
2021/04/14 07:59:43;;;;;;;4.53;0.98;;;18.20;39.60;;;;;;4929825;29;20206;-77
2021/04/14 08:02:14;;;;;;;1.80;0.98;;;18.30;39.20;;;;;;4932186;29;20186;-80
2021/04/14 08:04:47;;;;;;;2.85;0.98;;;18.30;38.50;;;;;;4932975;29;20173;-78
2021/04/14 08:07:18;;;;;;;1.10;0.90;;;18.40;38.30;;;;;;4932786;29;20197;-77
2021/04/14 08:10:02;;;;;;;1.30;0.90;;;18.50;38.10;;;;;;4949736;29;20288;-79
2021/04/14 08:12:34;;;;;;;1.58;1.05;;;18.50;38.30;;;;;;4947284;29;20219;-78
2021/04/14 08:15:14;;;;;;;1.67;0.82;;;18.50;38.40;;;;;;4963632;29;20177;-79
2021/04/14 08:17:44;;;;;;;1.63;0.95;;;18.50;38.20;;;;;;4949718;29;20197;-78
2021/04/14 08:20:23;;;;;;;2.35;0.95;;;18.50;38.30;;;;;;4962952;29;20224;-79
2021/04/14 08:22:51;;;;;;;0.70;0.70;;;18.50;38.10;;;;;;4961761;29;20185;-82
2021/04/14 08:25:28;;;;;;;2.20;0.80;;;18.50;38.10;;;;;;4965015;29;20169;-81
2021/04/14 08:27:57;;;;;;;2.33;0.98;;;18.60;37.50;;;;;;4966352;29;20165;-80
2021/04/14 08:30:24;;;;;;;2.88;0.85;;;18.60;38.00;;;;;;4966897;29;20266;-80
2021/04/14 08:32:52;;;;;;;3.78;1.13;;;18.60;36.90;;;;;;4950406;29;20178;-80
2021/04/14 08:35:29;;;;;;;0.88;0.82;;;18.60;37.50;;;;;;4965276;28;20157;-80
2021/04/14 08:38:05;;;;;;;1.60;0.80;;;18.60;37.50;;;;;;4950440;29;20503;-79
2021/04/14 08:40:35;;;;;;;1.27;0.73;;;18.60;36.90;;;;;;4950838;29;20616;-81
2021/04/14 08:43:40;;;;;;;3.67;1.00;;;18.70;37.10;;;;;;4937894;29;20177;-82
2021/04/14 08:46:19;;;;;;;1.13;0.80;;;18.60;36.90;;;;;;4864360;29;20267;-80
2021/04/14 08:48:48;;;;;;;1.58;0.98;;;18.60;36.80;;;;;;4864131;29;20206;-79
2021/04/14 08:51:14;;;;;;;3.95;0.70;;;18.60;37.30;;;;;;4863311;29;20186;-82
2021/04/14 08:53:43;;;;;;;0.80;0.80;;;18.70;37.10;;;;;;4848799;29;20191;-83
2021/04/14 08:56:09;;;;;;;2.42;1.00;;;18.70;36.90;;;;;;4849812;29;20184;-82
2021/04/14 08:58:35;;;;;;;3.35;0.70;;;18.70;36.90;;;;;;4848844;29;20260;-82
2021/04/14 09:01:01;;;;;;;2.50;1.00;;;18.70;36.70;;;;;;4867331;29;20204;-82
2021/04/14 09:03:34;;;;;;;2.83;0.88;;;18.70;37.00;;;;;;4854660;29;20612;-82
2021/04/14 09:06:31;;;;;;;3.53;0.90;;;18.70;36.90;;;;;;4873305;29;20160;-82
2021/04/14 09:09:15;;;;;;;1.60;0.80;;;18.70;36.90;;;;;;4863325;29;20220;-82
2021/04/14 09:12:05;;;;;;;0.70;0.70;;;18.70;36.80;;;;;;4872440;29;20180;-81
2021/04/14 09:14:36;;;;;;;1.85;0.80;;;18.70;36.90;;;;;;4902495;29;20192;-81
2021/04/14 09:17:33;;;;;;;1.35;1.13;;;18.70;36.80;;;;;;4873502;29;20199;-79
2021/04/14 09:20:20;;;;;;;2.45;0.80;;;18.70;36.90;;;;;;4889089;29;20263;-81
2021/04/14 09:23:11;;;;;;;1.38;1.00;;;18.70;36.90;;;;;;4948547;29;20158;-81
2021/04/14 09:26:04;;;;;;;2.40;0.90;;;18.70;36.80;;;;;;4980567;28;20261;-82
2021/04/14 09:28:54;;;;;;;1.27;0.95;;;18.70;36.60;;;;;;4962812;29;20181;-82
2021/04/14 09:31:39;;;;;;;1.30;1.00;;;18.70;36.50;;;;;;5016794;23;20352;-82
2021/04/14 09:34:33;;;;;;;1.92;1.02;;;18.60;36.80;;;;;;4965396;29;20187;-82
2021/04/14 09:37:29;;;;;;;1.17;0.68;;;18.60;36.70;;;;;;4964134;28;20572;-81
2021/04/14 09:40:02;;;;;;;1.55;0.98;;;18.60;36.60;;;;;;4964491;29;20197;-80
2021/04/14 09:42:56;;;;;;;1.20;0.88;;;18.70;36.60;;;;;;4963903;29;20173;-81
2021/04/14 09:45:53;;;;;;;1.00;0.80;;;18.70;36.40;;;;;;4979160;28;20537;-82
2021/04/14 09:49:00;;;;;;;1.20;0.88;;;18.70;36.40;;;;;;4980809;28;20189;-82
2021/04/14 09:51:56;;;;;;;1.13;0.70;;;18.70;36.40;;;;;;5119264;23;20258;-81
2021/04/14 09:54:36;;;;;;;1.13;0.90;;;18.60;36.40;;;;;;4942015;29;20178;-82
2021/04/14 10:04:47;;;;;;;;;;;;;;;;;;;;;
2021/04/14 10:16:42;;;;;;;1.85;0.85;;;18.70;35.90;;;;;;1471691;26;20245;-81
2021/04/14 10:19:14;;;;;;;0.85;0.80;;;18.50;35.90;;;;;;4940401;29;20205;-82
2021/04/14 10:21:45;;;;;;;1.30;0.98;;;18.60;35.90;;;;;;4943148;29;20150;-82
2021/04/14 10:24:39;;;;;;;2.55;1.05;;;18.50;35.80;;;;;;4944086;29;20205;-81
2021/04/14 10:27:05;;;;;;;1.17;0.90;;;18.60;35.90;;;;;;4954111;29;20230;-80
2021/04/14 10:29:42;;;;;;;1.80;1.00;;;18.50;35.90;;;;;;4934479;29;20175;-78
2021/04/14 10:32:21;;;;;;;1.40;0.70;;;18.50;35.80;;;;;;4950206;29;20158;-80
2021/04/14 10:34:48;;;;;;;2.47;1.10;;;18.60;35.70;;;;;;4950666;29;20213;-79
2021/04/14 10:37:34;;;;;;;2.70;0.80;;;18.60;35.50;;;;;;4930729;29;20640;-79
2021/04/14 10:40:07;;;;;;;2.30;0.98;;;18.70;35.40;;;;;;4948664;29;20197;-81
2021/04/14 10:42:36;;;;;;;1.50;1.00;;;18.70;35.30;;;;;;4936150;29;20185;-81
2021/04/14 10:45:07;;;;;;;0.93;0.80;;;18.70;35.30;;;;;;4933123;29;20166;-82
2021/04/14 10:47:47;;;;;;;1.95;0.80;;;18.70;35.20;;;;;;4954896;29;20176;-79
2021/04/14 10:50:23;;;;;;;3.83;1.00;;;18.70;35.10;;;;;;4956130;29;20287;-82
2021/04/14 10:53:06;;;;;;;3.40;0.85;;;18.70;35.00;;;;;;4943821;29;20154;-81
2021/04/14 10:55:44;;;;;;;1.55;1.10;;;18.70;35.00;;;;;;4945678;28;20193;-82
2021/04/14 10:58:13;;;;;;;2.13;0.80;;;18.60;35.00;;;;;;4939902;29;20180;-80
2021/04/14 11:00:40;;;;;;;0.75;0.75;;;18.70;34.90;;;;;;4933951;29;20205;-80
2021/04/14 11:03:11;;;;;;;1.10;0.80;;;18.60;35.10;;;;;;4950973;29;20168;-80
2021/04/14 11:05:48;;;;;;;1.13;0.82;;;18.60;35.10;;;;;;4947471;29;20163;-80
2021/04/14 11:08:15;;;;;;;0.90;0.77;;;18.50;35.10;;;;;;4952485;29;20217;-80
2021/04/14 11:10:42;;;;;;;3.50;1.00;;;18.50;35.10;;;;;;4936266;29;20694;-80
2021/04/14 11:13:20;;;;;;;2.90;0.90;;;18.50;35.00;;;;;;4952015;29;20164;-78
2021/04/14 11:15:52;;;;;;;0.77;0.60;;;18.60;34.90;;;;;;4948107;29;20165;-79
2021/04/14 11:18:35;;;;;;;1.20;0.80;;;18.60;34.80;;;;;;4949417;29;20226;-80
2021/04/14 11:23:32;;;;;;;0.85;0.85;;;18.60;34.60;;;;;;4951073;29;20165;-78
2021/04/14 11:26:20;;;;;;;2.63;1.27;;;18.70;34.50;;;;;;4949504;29;20229;-80
2021/04/14 11:28:56;;;;;;;2.25;0.90;;;18.70;34.40;;;;;;4938048;29;20242;-78
2021/04/14 11:31:30;;;;;;;1.42;0.88;;;18.70;34.40;;;;;;4954449;29;20149;-77
2021/04/14 11:34:01;;;;;;;0.70;0.70;;;18.70;34.30;;;;;;4932722;29;20689;-79
2021/04/14 11:36:32;;;;;;;1.50;1.00;;;18.70;34.20;;;;;;4934029;29;20242;-80
2021/04/14 11:39:07;;;;;;;13.65;1.65;;;18.70;34.40;;;;;;4950367;29;20182;-78
2021/04/14 11:41:46;;;;;;;12.10;2.00;;;18.70;34.30;;;;;;4953397;29;20622;-78
2021/04/14 11:44:17;;;;;;;9.95;1.42;;;18.70;34.00;;;;;;4951114;29;20208;-79
2021/04/14 11:46:54;;;;;;;15.20;1.65;;;18.80;34.10;;;;;;4934340;29;20213;-78
2021/04/14 11:49:28;;;;;;;7.80;1.40;;;18.80;34.10;;;;;;4950508;29;20205;-78
2021/04/14 11:52:24;;;;;;;2.95;1.10;;;18.80;34.10;;;;;;4947590;29;20172;-79
2021/04/14 11:54:51;;;;;;;8.85;1.45;;;18.70;34.20;;;;;;4929639;29;20681;-79
2021/04/14 11:57:24;;;;;;;7.53;1.05;;;18.70;34.20;;;;;;4932536;29;20253;-77
2021/04/14 12:00:10;;;;;;;3.90;1.10;;;18.80;34.10;;;;;;4928526;29;20735;-78
2021/04/14 12:02:46;;;;;;;5.13;1.10;;;18.80;34.30;;;;;;4950122;29;20205;-79
2021/04/14 12:05:13;;;;;;;1.85;0.80;;;18.70;34.10;;;;;;4949594;29;20225;-80
2021/04/14 12:07:39;;;;;;;4.00;1.02;;;18.70;34.10;;;;;;4951804;29;20218;-79
2021/04/14 12:10:07;;;;;;;3.60;0.88;;;18.70;34.00;;;;;;4948411;29;20158;-79
2021/04/14 12:12:34;;;;;;;4.65;0.88;;;18.70;34.10;;;;;;4945271;29;20174;-76
2021/04/14 12:15:06;;;;;;;3.65;0.90;;;18.70;34.20;;;;;;4951583;29;20186;-80
2021/04/14 12:17:32;;;;;;;1.52;0.95;;;18.60;34.30;;;;;;4933370;29;20735;-79
2021/04/14 12:19:59;;;;;;;5.07;1.02;;;18.70;34.20;;;;;;4935213;29;20220;-81
2021/04/14 12:22:29;;;;;;;3.60;1.10;;;18.80;34.00;;;;;;4947718;29;20229;-81
2021/04/14 12:25:00;;;;;;;3.47;1.10;;;18.60;34.10;;;;;;4950880;29;20185;-82
2021/04/14 12:27:27;;;;;;;3.22;0.82;;;18.60;34.10;;;;;;4948792;29;20166;-81
2021/04/14 12:29:55;;;;;;;4.30;1.00;;;18.70;34.10;;;;;;4948771;29;20195;-81
2021/04/14 12:32:21;;;;;;;9.00;1.25;;;18.60;34.20;;;;;;4931328;29;20170;-81
2021/04/14 12:34:47;;;;;;;5.35;1.15;;;18.70;34.10;;;;;;4915218;29;20182;-82
2021/04/14 12:37:14;;;;;;;4.60;1.10;;;18.70;33.90;;;;;;4931843;29;20166;-81
2021/04/14 12:39:42;;;;;;;7.65;1.35;;;18.70;33.80;;;;;;4930080;29;20221;-83
2021/04/14 12:42:08;;;;;;;6.78;1.05;;;18.70;33.80;;;;;;4950548;29;20245;-81
2021/04/14 12:44:34;;;;;;;5.20;1.08;;;18.70;33.90;;;;;;4913700;29;20174;-83
2021/04/14 12:47:00;;;;;;;4.47;1.45;;;18.70;33.80;;;;;;4929015;29;20173;-84
2021/04/14 12:49:27;;;;;;;3.28;0.90;;;18.70;33.80;;;;;;4931035;29;20526;-84
2021/04/14 12:52:00;;;;;;;9.15;1.10;;;18.80;33.70;;;;;;4948965;29;20161;-84
2021/04/14 12:54:38;;;;;;;2.47;1.10;;;18.70;33.70;;;;;;4934381;29;20170;-80
2021/04/14 12:57:17;;;;;;;3.15;1.00;;;18.80;33.80;;;;;;4955927;29;20154;-79
2021/04/14 13:00:05;;;;;;;4.88;1.13;;;18.80;33.60;;;;;;4952690;29;20190;-82
2021/04/14 13:02:42;;;;;;;5.65;1.02;;;18.80;33.40;;;;;;4950335;29;20631;-78
2021/04/14 13:05:30;;;;;;;4.93;1.08;;;18.90;33.50;;;;;;4946800;29;20173;-79
2021/04/14 13:08:02;;;;;;;3.38;0.75;;;18.90;33.60;;;;;;4931194;29;20181;-82
2021/04/14 13:10:44;;;;;;;2.53;0.82;;;18.90;33.70;;;;;;4947518;29;20170;-79
2021/04/14 13:13:10;;;;;;;3.58;0.80;;;18.80;33.70;;;;;;4928309;29;20164;-81
2021/04/14 13:16:02;;;;;;;3.47;0.70;;;18.80;33.70;;;;;;4944733;29;20159;-81
2021/04/14 13:18:30;;;;;;;6.03;1.08;;;18.80;33.70;;;;;;4932398;29;20242;-80
2021/04/14 13:20:56;;;;;;;4.05;1.00;;;18.80;33.60;;;;;;4936963;29;20209;-79
2021/04/14 13:23:35;;;;;;;4.65;1.20;;;18.80;33.70;;;;;;4935658;29;20185;-79
2021/04/14 13:26:14;;;;;;;3.47;0.90;;;18.70;33.70;;;;;;4932354;29;20283;-81
2021/04/14 13:28:52;;;;;;;3.83;1.00;;;18.70;33.70;;;;;;4951090;29;20192;-79
2021/04/14 13:31:35;;;;;;;2.53;0.90;;;18.70;33.60;;;;;;4951774;29;20217;-82
2021/04/14 13:34:07;;;;;;;2.97;1.08;;;18.70;33.70;;;;;;4937648;29;20546;-81
2021/04/14 13:37:14;;;;;;;5.15;1.05;;;18.80;33.70;;;;;;4922334;29;20588;-83
2021/04/14 13:40:10;;;;;;;4.85;0.90;;;18.80;33.70;;;;;;4866394;29;20222;-80
2021/04/14 13:42:40;;;;;;;5.20;1.00;;;18.70;33.60;;;;;;4852948;29;20218;-81
2021/04/14 13:45:20;;;;;;;3.75;0.85;;;18.70;33.70;;;;;;4849792;29;20189;-80
2021/04/14 13:47:54;;;;;;;4.95;1.10;;;18.70;33.60;;;;;;4848586;29;20192;-81